KOBE/OBE METAR and TAF weather

Enter ICAO airport designator
Station Type Date Time Source
KOBE METAR 2022/11/26 08:35 UTC NOAA

KOBE 260835Z AUTO 36004KT 5SM BR CLR 21/21 A3003 RMK AO2


Station Type Date Time Source
KOBE Decoded METAR 2022/11/26 08:35 UTC NOAA

Okeechobee County Airport, FL, United States (KOBE) 27-15-60N 080-51-02W
Nov 26, 2022 - 03:35 AM EST / 2022.11.26 0835 UTC
Wind: from the N (360 degrees) at 5 MPH (4 KT):0
Visibility: 5 mile(s):0
Sky conditions: clear
Weather: mist
Temperature: 69 F (21 C)
Dew Point: 69 F (21 C)
Relative Humidity: 100%
Pressure (altimeter): 30.03 in. Hg (1016 hPa)
ob: KOBE 260835Z AUTO 36004KT 5SM BR CLR 21/21 A3003 RMK AO2
cycle: 8

Station Type Date Time Source
KOBE TAF UTC NOAA

Error!

Example: see airport list